Time;durP1;ratioP1;P1;durP2;ratioP2;P2;SDS_P1;SDS_P2;PMS_P1;PMS_P2;Temp;Humidity;BMP_temperature;BMP_pressure;BME280_temperature;BME280_humidity;BME280_pressure;Samples;Min_cycle;Max_cycle;Signal;HPM_P1;HPM_P2
2023/06/05 00:01:52;;;;;;;4.50;2.87;;;;;;;;;;5023530;28;20029;-61
2023/06/05 00:04:17;;;;;;;4.33;3.17;;;;;;;;;;5030234;28;20305;-61
2023/06/05 00:06:43;;;;;;;4.53;3.67;;;;;;;;;;5024288;28;20024;-61
2023/06/05 00:09:09;;;;;;;3.95;3.28;;;;;;;;;;5021287;28;20045;-61
2023/06/05 00:11:34;;;;;;;4.10;3.30;;;;;;;;;;5020451;28;20467;-61
2023/06/05 00:14:00;;;;;;;4.80;3.45;;;;;;;;;;5021482;28;20056;-61
2023/06/05 00:16:25;;;;;;;3.95;3.45;;;;;;;;;;5022391;28;20025;-61
2023/06/05 00:18:50;;;;;;;4.90;3.17;;;;;;;;;;5021724;28;20072;-60
2023/06/05 00:21:15;;;;;;;4.17;3.20;;;;;;;;;;5020748;28;20037;-62
2023/06/05 00:23:41;;;;;;;3.50;2.97;;;;;;;;;;5021440;28;20272;-61
2023/06/05 00:26:06;;;;;;;5.43;3.28;;;;;;;;;;5019902;28;20057;-60
2023/06/05 00:28:32;;;;;;;3.77;3.37;;;;;;;;;;5021242;28;20098;-60
2023/06/05 00:30:57;;;;;;;3.97;3.17;;;;;;;;;;4990926;28;20124;-61
2023/06/05 00:33:22;;;;;;;5.13;3.63;;;;;;;;;;5022562;28;20040;-60
2023/06/05 00:35:47;;;;;;;4.60;3.23;;;;;;;;;;5020980;28;20018;-60
2023/06/05 00:38:13;;;;;;;4.57;3.10;;;;;;;;;;5021754;28;20033;-60
2023/06/05 00:40:38;;;;;;;3.65;3.17;;;;;;;;;;5019434;28;20302;-61
2023/06/05 00:43:05;;;;;;;3.93;3.10;;;;;;;;;;5000874;28;20032;-60
2023/06/05 00:45:31;;;;;;;4.10;3.10;;;;;;;;;;5019893;28;20116;-61
2023/06/05 00:47:56;;;;;;;4.10;3.33;;;;;;;;;;5021545;28;20100;-60
2023/06/05 00:50:21;;;;;;;4.40;3.35;;;;;;;;;;5023297;28;20447;-61
2023/06/05 00:52:46;;;;;;;4.72;3.38;;;;;;;;;;5019975;28;20013;-61
2023/06/05 00:55:12;;;;;;;4.13;3.38;;;;;;;;;;5022538;28;20466;-62
2023/06/05 00:57:38;;;;;;;4.53;3.30;;;;;;;;;;5021093;28;20440;-61
2023/06/05 01:00:06;;;;;;;3.85;3.08;;;;;;;;;;5022669;28;20292;-60
2023/06/05 01:02:34;;;;;;;3.92;2.88;;;;;;;;;;5023840;28;20028;-62
2023/06/05 01:04:59;;;;;;;4.45;3.10;;;;;;;;;;5017012;28;20107;-62
2023/06/05 01:07:24;;;;;;;4.27;3.50;;;;;;;;;;5022592;28;20499;-61
2023/06/05 01:09:50;;;;;;;4.22;2.83;;;;;;;;;;5019392;28;20261;-60
2023/06/05 01:12:18;;;;;;;4.43;3.17;;;;;;;;;;5019663;28;20046;-60
2023/06/05 01:14:45;;;;;;;4.20;3.45;;;;;;;;;;5016819;28;20034;-60
2023/06/05 01:17:11;;;;;;;4.15;3.25;;;;;;;;;;5006264;28;20037;-61
2023/06/05 01:19:39;;;;;;;4.40;3.38;;;;;;;;;;5019349;28;20578;-60
2023/06/05 01:22:05;;;;;;;4.53;3.35;;;;;;;;;;5018839;28;20038;-61
2023/06/05 01:24:30;;;;;;;3.67;2.95;;;;;;;;;;5004461;28;20839;-61
2023/06/05 01:27:00;;;;;;;3.17;2.88;;;;;;;;;;5024697;28;20041;-61
2023/06/05 01:29:44;;;;;;;3.67;3.05;;;;;;;;;;5016194;28;20395;-59
2023/06/05 01:32:15;;;;;;;4.20;2.90;;;;;;;;;;5020013;28;20583;-61
2023/06/05 01:34:43;;;;;;;3.65;3.00;;;;;;;;;;5001224;28;20487;-60
2023/06/05 01:37:08;;;;;;;4.13;3.05;;;;;;;;;;4970730;28;20084;-60
2023/06/05 01:39:33;;;;;;;3.85;3.05;;;;;;;;;;5009315;28;20521;-61
2023/06/05 01:41:59;;;;;;;4.30;3.03;;;;;;;;;;5022420;28;20555;-62
2023/06/05 01:44:24;;;;;;;3.97;3.10;;;;;;;;;;5017741;28;20276;-60
2023/06/05 01:46:50;;;;;;;4.30;2.95;;;;;;;;;;5027642;28;20484;-61
2023/06/05 01:49:16;;;;;;;5.13;3.05;;;;;;;;;;5020928;28;20037;-62
2023/06/05 01:51:41;;;;;;;3.35;2.88;;;;;;;;;;5015388;28;20401;-60
2023/06/05 01:54:07;;;;;;;4.07;3.00;;;;;;;;;;5008082;28;20077;-60
2023/06/05 01:56:35;;;;;;;4.38;3.13;;;;;;;;;;5020864;28;20041;-60
2023/06/05 01:59:06;;;;;;;3.88;3.00;;;;;;;;;;4999813;28;20087;-61
2023/06/05 02:01:32;;;;;;;3.85;2.80;;;;;;;;;;5023444;28;20440;-61
2023/06/05 02:03:57;;;;;;;4.22;2.85;;;;;;;;;;5021909;28;20033;-61
2023/06/05 02:06:24;;;;;;;3.83;2.97;;;;;;;;;;5024038;28;20064;-61
2023/06/05 02:08:50;;;;;;;3.30;2.70;;;;;;;;;;5021512;28;20322;-61
2023/06/05 02:11:15;;;;;;;4.10;3.30;;;;;;;;;;5021244;28;20053;-61
2023/06/05 02:13:40;;;;;;;4.67;2.93;;;;;;;;;;4986388;28;20043;-60
2023/06/05 02:16:08;;;;;;;3.92;3.20;;;;;;;;;;5017600;28;20073;-60
2023/06/05 02:18:36;;;;;;;3.65;2.70;;;;;;;;;;5030070;28;20474;-60
2023/06/05 02:21:02;;;;;;;4.40;2.92;;;;;;;;;;5018674;28;20053;-61
2023/06/05 02:23:27;;;;;;;3.25;2.80;;;;;;;;;;5025760;28;20044;-61
2023/06/05 02:25:52;;;;;;;3.30;2.67;;;;;;;;;;5016505;28;20038;-62
2023/06/05 02:28:19;;;;;;;3.40;2.90;;;;;;;;;;5021889;28;20288;-62
2023/06/05 02:30:45;;;;;;;4.03;2.75;;;;;;;;;;5014956;28;20284;-61
2023/06/05 02:33:10;;;;;;;3.55;2.88;;;;;;;;;;5020018;28;20037;-60
2023/06/05 02:35:36;;;;;;;3.95;3.00;;;;;;;;;;5019582;28;20506;-61
2023/06/05 02:38:04;;;;;;;3.70;2.90;;;;;;;;;;5001830;28;20042;-61
2023/06/05 02:40:30;;;;;;;4.30;2.90;;;;;;;;;;4985470;28;20053;-61
2023/06/05 02:42:55;;;;;;;4.97;2.80;;;;;;;;;;4997380;28;20042;-61
2023/06/05 02:45:20;;;;;;;3.43;2.67;;;;;;;;;;4988574;28;20038;-62
2023/06/05 02:47:45;;;;;;;3.30;2.87;;;;;;;;;;4981080;28;20277;-60
2023/06/05 02:50:11;;;;;;;3.85;2.80;;;;;;;;;;4970776;28;20179;-61
2023/06/05 02:52:38;;;;;;;4.03;2.88;;;;;;;;;;4969206;28;20030;-61
2023/06/05 02:55:05;;;;;;;4.57;3.63;;;;;;;;;;4982858;28;20900;-59
2023/06/05 02:57:30;;;;;;;6.50;2.88;;;;;;;;;;4981980;28;20133;-61
2023/06/05 02:59:56;;;;;;;3.63;2.85;;;;;;;;;;4966450;28;20523;-60
2023/06/05 03:02:21;;;;;;;4.13;2.83;;;;;;;;;;4954504;28;20033;-61
2023/06/05 03:04:52;;;;;;;4.38;2.80;;;;;;;;;;5001196;28;20272;-61
2023/06/05 03:07:18;;;;;;;5.50;2.95;;;;;;;;;;4975713;28;20131;-59
2023/06/05 03:09:43;;;;;;;3.37;2.70;;;;;;;;;;4994843;28;20082;-62
2023/06/05 03:12:08;;;;;;;3.30;2.63;;;;;;;;;;4993639;28;20296;-60
2023/06/05 03:14:33;;;;;;;3.73;2.90;;;;;;;;;;4985459;28;20035;-61
2023/06/05 03:16:59;;;;;;;3.00;2.50;;;;;;;;;;4994623;28;21281;-60
2023/06/05 03:19:26;;;;;;;3.80;2.60;;;;;;;;;;4999327;28;20054;-60
2023/06/05 03:21:53;;;;;;;3.80;2.92;;;;;;;;;;4987218;28;20041;-61
2023/06/05 03:24:19;;;;;;;5.13;3.05;;;;;;;;;;4984768;28;20080;-61
2023/06/05 03:26:45;;;;;;;3.83;2.90;;;;;;;;;;4988393;28;20177;-61
2023/06/05 03:29:10;;;;;;;4.55;3.58;;;;;;;;;;4987939;28;20045;-60
2023/06/05 03:31:35;;;;;;;4.18;2.85;;;;;;;;;;4968974;28;20080;-61
2023/06/05 03:34:02;;;;;;;4.57;2.95;;;;;;;;;;4987995;28;20031;-60
2023/06/05 03:36:28;;;;;;;5.55;3.20;;;;;;;;;;4986447;28;20045;-60
2023/06/05 03:38:53;;;;;;;4.72;3.40;;;;;;;;;;4985661;28;20041;-60
2023/06/05 03:41:18;;;;;;;3.83;3.22;;;;;;;;;;4987332;28;20057;-59
2023/06/05 03:43:44;;;;;;;4.03;3.00;;;;;;;;;;4982427;28;20034;-60
2023/06/05 03:46:10;;;;;;;4.40;3.00;;;;;;;;;;4985958;28;20033;-60
2023/06/05 03:48:35;;;;;;;4.70;3.10;;;;;;;;;;4983351;28;20530;-61
2023/06/05 03:51:00;;;;;;;5.17;3.27;;;;;;;;;;4966723;28;20041;-60
2023/06/05 03:53:29;;;;;;;4.00;3.10;;;;;;;;;;4987348;28;20281;-60
2023/06/05 03:55:54;;;;;;;3.70;2.70;;;;;;;;;;4986328;28;20296;-60
2023/06/05 03:58:20;;;;;;;4.32;3.20;;;;;;;;;;4985892;28;20042;-60
2023/06/05 04:00:48;;;;;;;5.22;3.05;;;;;;;;;;4985203;28;20042;-60
2023/06/05 04:03:13;;;;;;;4.20;3.00;;;;;;;;;;4983396;28;20030;-60
2023/06/05 04:05:39;;;;;;;6.32;3.30;;;;;;;;;;4983230;28;20042;-60
2023/06/05 04:08:05;;;;;;;3.53;3.15;;;;;;;;;;4985651;28;20207;-62
2023/06/05 04:10:30;;;;;;;3.90;3.40;;;;;;;;;;4983004;28;20041;-60
2023/06/05 04:12:55;;;;;;;4.20;3.30;;;;;;;;;;5001323;28;20034;-60
2023/06/05 04:15:22;;;;;;;6.40;3.30;;;;;;;;;;4992573;28;20350;-61
2023/06/05 04:17:47;;;;;;;4.90;3.40;;;;;;;;;;5007344;28;20041;-59
2023/06/05 04:20:15;;;;;;;4.05;3.50;;;;;;;;;;5011639;28;22120;-59
2023/06/05 04:22:45;;;;;;;5.22;3.40;;;;;;;;;;5011073;28;20663;-60
2023/06/05 04:25:12;;;;;;;9.35;3.95;;;;;;;;;;5009968;28;20034;-61
2023/06/05 04:27:40;;;;;;;6.72;3.50;;;;;;;;;;5014145;28;20798;-60
2023/06/05 04:30:06;;;;;;;7.32;3.70;;;;;;;;;;4993311;28;20129;-60
2023/06/05 04:32:34;;;;;;;6.00;3.50;;;;;;;;;;5011114;28;20238;-62
2023/06/05 04:34:59;;;;;;;8.27;3.88;;;;;;;;;;4995290;28;20142;-60
2023/06/05 04:37:24;;;;;;;7.45;3.95;;;;;;;;;;5010855;28;20013;-60
2023/06/05 04:39:50;;;;;;;11.03;3.87;;;;;;;;;;5010953;28;20037;-59
2023/06/05 04:42:17;;;;;;;13.27;4.07;;;;;;;;;;5010833;28;20602;-60
2023/06/05 04:44:42;;;;;;;10.07;4.07;;;;;;;;;;4994833;28;20045;-60
2023/06/05 04:47:08;;;;;;;9.33;4.20;;;;;;;;;;5010738;28;20385;-60
2023/06/05 04:49:33;;;;;;;10.93;4.30;;;;;;;;;;5008761;28;20322;-60
2023/06/05 04:51:59;;;;;;;8.40;4.63;;;;;;;;;;5008391;28;20372;-60
2023/06/05 04:54:25;;;;;;;9.90;3.92;;;;;;;;;;5009345;28;20164;-61
2023/06/05 04:56:50;;;;;;;13.02;5.03;;;;;;;;;;5006363;28;20471;-61
2023/06/05 04:59:15;;;;;;;9.03;4.10;;;;;;;;;;5007623;28;21011;-61
2023/06/05 05:01:41;;;;;;;11.98;4.72;;;;;;;;;;5009440;28;20300;-60
2023/06/05 05:04:06;;;;;;;11.38;4.35;;;;;;;;;;5010603;28;20791;-58
2023/06/05 05:06:31;;;;;;;10.50;4.63;;;;;;;;;;5010520;28;20021;-61
2023/06/05 05:08:56;;;;;;;10.17;4.50;;;;;;;;;;5010607;28;20415;-59
2023/06/05 05:11:22;;;;;;;14.07;4.57;;;;;;;;;;5014309;28;20955;-62
2023/06/05 05:13:47;;;;;;;11.77;6.35;;;;;;;;;;5012219;28;20411;-59
2023/06/05 05:16:12;;;;;;;12.25;6.15;;;;;;;;;;5012006;28;20044;-61
2023/06/05 05:18:42;;;;;;;10.87;6.27;;;;;;;;;;5010848;28;20053;-63
2023/06/05 05:21:07;;;;;;;10.60;6.55;;;;;;;;;;5009680;28;20042;-60
2023/06/05 05:23:33;;;;;;;14.00;6.85;;;;;;;;;;5010793;28;20052;-58
2023/06/05 05:25:59;;;;;;;13.75;6.47;;;;;;;;;;5006580;28;20410;-59
2023/06/05 05:28:24;;;;;;;10.60;6.72;;;;;;;;;;5011636;28;20560;-60
2023/06/05 05:30:51;;;;;;;10.98;6.65;;;;;;;;;;4992419;28;20118;-59
2023/06/05 05:33:16;;;;;;;11.43;6.25;;;;;;;;;;5009945;28;20065;-59
2023/06/05 05:35:41;;;;;;;11.35;6.85;;;;;;;;;;5008627;28;20045;-61
2023/06/05 05:38:07;;;;;;;8.83;6.23;;;;;;;;;;4991031;28;20826;-60
2023/06/05 05:40:32;;;;;;;9.30;6.53;;;;;;;;;;5005254;28;20483;-59
2023/06/05 05:42:57;;;;;;;11.40;7.30;;;;;;;;;;5002857;28;20407;-62
2023/06/05 05:45:22;;;;;;;12.67;6.80;;;;;;;;;;4988498;28;20288;-59
2023/06/05 05:47:48;;;;;;;13.63;6.82;;;;;;;;;;5010961;28;20966;-58
2023/06/05 05:50:13;;;;;;;9.30;6.77;;;;;;;;;;5003928;28;20038;-58
2023/06/05 05:52:38;;;;;;;9.75;6.82;;;;;;;;;;4973140;28;20347;-60
2023/06/05 05:55:04;;;;;;;9.63;7.10;;;;;;;;;;4976466;28;20042;-60
2023/06/05 05:57:30;;;;;;;11.68;7.30;;;;;;;;;;5007956;28;20753;-59
2023/06/05 05:59:55;;;;;;;9.60;6.55;;;;;;;;;;5001147;28;20054;-60
2023/06/05 06:02:21;;;;;;;13.90;6.97;;;;;;;;;;4992028;28;20132;-60
2023/06/05 06:04:46;;;;;;;10.35;6.93;;;;;;;;;;5008072;28;20077;-60
2023/06/05 06:07:11;;;;;;;9.70;6.50;;;;;;;;;;5009070;28;20038;-59
2023/06/05 06:09:37;;;;;;;9.02;6.53;;;;;;;;;;5003196;28;20100;-58
2023/06/05 06:12:05;;;;;;;9.95;6.65;;;;;;;;;;4989930;28;20052;-60
2023/06/05 06:14:31;;;;;;;9.48;7.63;;;;;;;;;;5006049;28;20537;-60
2023/06/05 06:16:57;;;;;;;11.48;7.03;;;;;;;;;;5009067;28;20125;-60
2023/06/05 06:19:23;;;;;;;8.38;6.50;;;;;;;;;;4991946;28;20534;-61
2023/06/05 06:21:50;;;;;;;9.48;6.72;;;;;;;;;;5011034;28;20053;-62
2023/06/05 06:24:15;;;;;;;8.95;7.68;;;;;;;;;;5009469;28;20045;-60
2023/06/05 06:26:42;;;;;;;9.20;7.85;;;;;;;;;;5008437;28;20045;-60
2023/06/05 06:29:08;;;;;;;10.85;7.47;;;;;;;;;;5007310;28;20044;-60
2023/06/05 06:31:33;;;;;;;11.88;8.23;;;;;;;;;;5010233;28;20056;-61
2023/06/05 06:33:59;;;;;;;9.40;7.57;;;;;;;;;;5013039;28;20045;-60
2023/06/05 06:36:26;;;;;;;9.68;7.47;;;;;;;;;;4971359;28;20547;-60
2023/06/05 06:38:51;;;;;;;9.63;7.10;;;;;;;;;;4991927;28;20185;-60
2023/06/05 06:41:16;;;;;;;9.20;6.90;;;;;;;;;;4985017;28;20136;-60
2023/06/05 06:43:41;;;;;;;8.93;7.47;;;;;;;;;;4993361;28;20811;-60
2023/06/05 06:46:07;;;;;;;10.82;8.13;;;;;;;;;;4992425;28;20993;-61
2023/06/05 06:48:32;;;;;;;10.17;7.93;;;;;;;;;;4994391;28;20041;-60
2023/06/05 06:50:57;;;;;;;10.85;8.18;;;;;;;;;;4984102;28;20050;-61
2023/06/05 06:53:23;;;;;;;9.50;7.90;;;;;;;;;;4993337;28;20543;-61
2023/06/05 06:55:48;;;;;;;10.70;8.20;;;;;;;;;;4995685;28;20296;-60
2023/06/05 06:58:13;;;;;;;12.00;8.53;;;;;;;;;;4982127;28;20293;-61
2023/06/05 07:00:38;;;;;;;13.25;9.00;;;;;;;;;;4991285;28;20883;-61
2023/06/05 07:03:04;;;;;;;12.33;8.23;;;;;;;;;;4962670;28;20034;-61
2023/06/05 07:05:29;;;;;;;11.35;8.15;;;;;;;;;;4999588;28;20346;-61
2023/06/05 07:07:55;;;;;;;12.48;8.57;;;;;;;;;;5010122;28;20099;-60
2023/06/05 07:10:20;;;;;;;9.93;7.97;;;;;;;;;;5009905;28;20539;-61
2023/06/05 07:12:45;;;;;;;12.37;9.30;;;;;;;;;;4999561;28;20411;-62
2023/06/05 07:15:11;;;;;;;10.17;8.70;;;;;;;;;;4998861;28;20328;-61
2023/06/05 07:17:36;;;;;;;10.75;8.57;;;;;;;;;;5004164;28;20514;-61
2023/06/05 07:20:02;;;;;;;11.60;8.80;;;;;;;;;;5009884;28;20519;-62
2023/06/05 07:22:30;;;;;;;12.57;8.80;;;;;;;;;;4993994;28;20550;-60
2023/06/05 07:24:56;;;;;;;13.98;9.00;;;;;;;;;;5009334;28;20115;-60
2023/06/05 07:27:21;;;;;;;13.23;9.27;;;;;;;;;;5008850;28;20477;-60
2023/06/05 07:29:46;;;;;;;13.20;11.23;;;;;;;;;;5013573;28;20069;-60
2023/06/05 07:32:12;;;;;;;14.33;10.40;;;;;;;;;;5008899;28;20053;-60
2023/06/05 07:34:37;;;;;;;13.88;10.07;;;;;;;;;;5008980;28;20300;-60
2023/06/05 07:37:02;;;;;;;14.10;10.17;;;;;;;;;;5011580;28;20042;-60
2023/06/05 07:39:28;;;;;;;15.30;10.32;;;;;;;;;;5011864;28;20190;-59
2023/06/05 07:41:53;;;;;;;12.85;9.75;;;;;;;;;;5009001;28;20061;-60
2023/06/05 07:44:19;;;;;;;15.48;10.85;;;;;;;;;;5000027;28;20423;-60
2023/06/05 07:46:45;;;;;;;14.30;10.93;;;;;;;;;;4996115;28;20037;-61
2023/06/05 07:49:11;;;;;;;16.15;10.77;;;;;;;;;;4992521;28;20103;-60
2023/06/05 07:51:36;;;;;;;13.75;10.05;;;;;;;;;;4996350;28;20030;-60
2023/06/05 07:54:05;;;;;;;14.13;10.20;;;;;;;;;;5001116;28;20037;-60
2023/06/05 07:56:31;;;;;;;15.65;10.65;;;;;;;;;;5013042;28;20049;-61
2023/06/05 07:58:56;;;;;;;15.18;9.90;;;;;;;;;;5012966;28;20061;-61
2023/06/05 08:01:22;;;;;;;15.65;10.40;;;;;;;;;;5010833;28;20045;-61
2023/06/05 08:03:47;;;;;;;15.20;9.93;;;;;;;;;;5012646;28;20148;-61
2023/06/05 08:06:12;;;;;;;15.57;10.32;;;;;;;;;;5012075;28;20038;-61
2023/06/05 08:08:37;;;;;;;14.63;10.53;;;;;;;;;;4991737;28;20061;-60
2023/06/05 08:11:03;;;;;;;13.43;10.37;;;;;;;;;;5011907;28;20315;-60
2023/06/05 08:13:29;;;;;;;13.20;9.87;;;;;;;;;;5013466;28;20359;-60
2023/06/05 08:15:54;;;;;;;14.23;10.13;;;;;;;;;;5012101;28;20296;-60
2023/06/05 08:18:21;;;;;;;14.67;9.73;;;;;;;;;;5009363;28;20049;-60
2023/06/05 08:20:46;;;;;;;13.32;10.00;;;;;;;;;;5008877;28;20319;-61
2023/06/05 08:23:12;;;;;;;15.10;9.47;;;;;;;;;;5012873;28;20056;-61
2023/06/05 08:25:37;;;;;;;14.13;10.30;;;;;;;;;;5008545;28;20296;-61
2023/06/05 08:28:02;;;;;;;14.90;10.40;;;;;;;;;;5011300;28;20436;-60
2023/06/05 08:30:27;;;;;;;12.75;9.73;;;;;;;;;;5000386;28;20046;-61
2023/06/05 08:32:53;;;;;;;17.63;10.27;;;;;;;;;;5001303;28;20076;-60
2023/06/05 08:35:18;;;;;;;12.87;9.80;;;;;;;;;;4993394;28;20049;-61
2023/06/05 08:37:43;;;;;;;15.30;9.70;;;;;;;;;;5009685;28;20033;-61
2023/06/05 08:40:10;;;;;;;13.07;9.87;;;;;;;;;;5011735;28;20324;-61
2023/06/05 08:42:35;;;;;;;12.73;9.32;;;;;;;;;;5006146;28;20041;-61
2023/06/05 08:45:00;;;;;;;15.50;9.40;;;;;;;;;;5009559;28;20044;-60
2023/06/05 08:47:27;;;;;;;15.07;10.27;;;;;;;;;;5002965;28;20038;-60
2023/06/05 08:49:53;;;;;;;15.18;9.45;;;;;;;;;;4989907;28;20072;-60
2023/06/05 08:52:19;;;;;;;13.77;9.50;;;;;;;;;;5010163;28;20049;-60
2023/06/05 08:54:44;;;;;;;12.18;9.18;;;;;;;;;;5011686;28;20285;-60
2023/06/05 08:57:10;;;;;;;13.60;9.75;;;;;;;;;;5013672;28;20107;-60
2023/06/05 08:59:35;;;;;;;14.88;9.77;;;;;;;;;;5002681;28;20550;-60
2023/06/05 09:02:01;;;;;;;13.75;9.63;;;;;;;;;;5001352;28;20037;-61
2023/06/05 09:04:29;;;;;;;14.77;9.73;;;;;;;;;;5003849;28;20072;-61
2023/06/05 09:06:58;;;;;;;12.18;9.77;;;;;;;;;;5007472;28;20315;-60
2023/06/05 09:09:25;;;;;;;12.07;8.98;;;;;;;;;;4995750;28;20056;-62
2023/06/05 09:12:08;;;;;;;11.98;8.98;;;;;;;;;;5001592;28;20719;-60
2023/06/05 09:14:34;;;;;;;10.98;8.38;;;;;;;;;;5009483;28;20475;-59
2023/06/05 09:17:00;;;;;;;12.10;9.15;;;;;;;;;;4992296;28;20041;-59
2023/06/05 09:19:27;;;;;;;12.73;8.77;;;;;;;;;;4987593;28;20083;-59
2023/06/05 09:21:54;;;;;;;13.02;9.60;;;;;;;;;;4993247;28;20042;-61
2023/06/05 09:24:21;;;;;;;12.68;9.43;;;;;;;;;;5004939;28;20034;-59
2023/06/05 09:26:59;;;;;;;13.25;9.88;;;;;;;;;;5008324;28;20038;-60
2023/06/05 09:29:27;;;;;;;12.57;9.13;;;;;;;;;;5009052;28;20040;-60
2023/06/05 09:31:57;;;;;;;13.77;9.07;;;;;;;;;;5008687;28;20030;-60
2023/06/05 09:34:28;;;;;;;12.43;9.13;;;;;;;;;;5008676;28;20045;-60
2023/06/05 09:36:57;;;;;;;12.00;8.52;;;;;;;;;;5008464;28;20034;-60
2023/06/05 09:39:25;;;;;;;12.35;8.30;;;;;;;;;;4991452;28;20136;-60
2023/06/05 09:41:51;;;;;;;11.05;8.32;;;;;;;;;;5009765;28;20060;-60
2023/06/05 09:44:16;;;;;;;11.93;8.93;;;;;;;;;;5009181;28;20020;-59
2023/06/05 09:46:54;;;;;;;11.23;8.43;;;;;;;;;;5009848;28;20033;-59
2023/06/05 09:49:19;;;;;;;11.43;8.07;;;;;;;;;;4992143;28;20060;-60
2023/06/05 09:51:45;;;;;;;12.48;8.48;;;;;;;;;;5008651;28;20533;-59
2023/06/05 09:54:11;;;;;;;11.85;7.85;;;;;;;;;;5008817;28;20450;-59
2023/06/05 09:56:36;;;;;;;12.20;7.38;;;;;;;;;;5009244;28;20447;-60
2023/06/05 09:59:01;;;;;;;11.50;7.67;;;;;;;;;;4995666;28;20399;-59
2023/06/05 10:01:28;;;;;;;9.47;7.20;;;;;;;;;;5009404;28;20328;-59
2023/06/05 10:03:57;;;;;;;12.75;8.05;;;;;;;;;;5010474;28;23309;-59
2023/06/05 10:06:23;;;;;;;11.63;7.93;;;;;;;;;;5008497;28;20033;-59
2023/06/05 10:08:49;;;;;;;12.10;8.00;;;;;;;;;;5007550;28;20511;-59
2023/06/05 10:11:14;;;;;;;11.38;7.72;;;;;;;;;;5005367;28;20103;-59
2023/06/05 10:13:40;;;;;;;11.95;8.10;;;;;;;;;;5006255;28;20048;-60
2023/06/05 10:16:05;;;;;;;12.50;8.32;;;;;;;;;;5008693;28;20045;-59
2023/06/05 10:18:30;;;;;;;10.53;7.77;;;;;;;;;;4996003;28;20034;-59
2023/06/05 10:20:56;;;;;;;12.45;8.00;;;;;;;;;;5002307;28;20057;-58
2023/06/05 10:23:21;;;;;;;12.10;7.47;;;;;;;;;;4994103;28;20376;-59
2023/06/05 10:25:47;;;;;;;12.27;8.63;;;;;;;;;;5007070;28;20512;-59
2023/06/05 10:28:30;;;;;;;10.60;8.05;;;;;;;;;;4990500;28;20037;-59
2023/06/05 10:31:02;;;;;;;11.20;8.23;;;;;;;;;;4989823;28;20033;-58
2023/06/05 10:33:47;;;;;;;11.98;8.55;;;;;;;;;;5006301;28;20032;-58
2023/06/05 10:36:16;;;;;;;12.30;8.10;;;;;;;;;;5006997;28;20033;-59
2023/06/05 10:38:41;;;;;;;11.43;8.85;;;;;;;;;;5004295;28;20049;-59
2023/06/05 10:41:07;;;;;;;11.73;8.35;;;;;;;;;;5004520;28;20072;-59
2023/06/05 10:43:48;;;;;;;14.32;8.65;;;;;;;;;;5005860;28;20790;-60
2023/06/05 10:46:34;;;;;;;11.10;7.88;;;;;;;;;;4990901;28;20091;-60
2023/06/05 10:49:19;;;;;;;9.30;7.32;;;;;;;;;;5005977;28;20060;-59
2023/06/05 10:51:46;;;;;;;9.55;7.47;;;;;;;;;;5006996;28;20037;-59
2023/06/05 10:54:16;;;;;;;11.32;7.68;;;;;;;;;;5001456;28;20054;-59
2023/06/05 10:56:58;;;;;;;10.40;7.95;;;;;;;;;;4986995;28;20049;-61
2023/06/05 10:59:24;;;;;;;8.77;6.80;;;;;;;;;;5009676;28;20196;-60
2023/06/05 11:02:08;;;;;;;9.15;7.28;;;;;;;;;;5006683;28;20907;-61
2023/06/05 11:04:46;;;;;;;9.00;6.63;;;;;;;;;;5008130;28;20110;-61
2023/06/05 11:07:30;;;;;;;9.65;7.00;;;;;;;;;;5008750;28;20037;-61
2023/06/05 11:10:01;;;;;;;10.77;7.20;;;;;;;;;;4991107;28;20129;-61
2023/06/05 11:12:27;;;;;;;9.98;7.03;;;;;;;;;;5009117;28;20229;-61
2023/06/05 11:14:52;;;;;;;9.85;6.95;;;;;;;;;;5000765;28;20061;-61
2023/06/05 11:17:30;;;;;;;12.10;6.80;;;;;;;;;;4982741;28;20046;-61
2023/06/05 11:19:56;;;;;;;10.60;6.22;;;;;;;;;;5004441;28;20050;-62
2023/06/05 11:22:22;;;;;;;8.43;5.82;;;;;;;;;;4988823;28;20038;-60
2023/06/05 11:25:08;;;;;;;8.93;6.07;;;;;;;;;;4974290;28;20049;-61
2023/06/05 11:27:40;;;;;;;7.95;5.38;;;;;;;;;;4992750;28;20065;-60
2023/06/05 11:30:07;;;;;;;8.60;5.50;;;;;;;;;;4998145;28;20751;-61
2023/06/05 11:32:32;;;;;;;7.97;5.68;;;;;;;;;;4991103;28;20109;-59
2023/06/05 11:34:58;;;;;;;7.35;5.32;;;;;;;;;;4989211;28;20113;-59
2023/06/05 11:37:24;;;;;;;9.73;5.43;;;;;;;;;;4989671;28;20034;-60
2023/06/05 11:39:50;;;;;;;7.40;5.57;;;;;;;;;;4989873;28;20048;-60
2023/06/05 11:42:21;;;;;;;8.45;5.45;;;;;;;;;;5001293;28;20037;-61
2023/06/05 11:44:46;;;;;;;10.60;6.10;;;;;;;;;;4990671;28;20041;-59
2023/06/05 11:47:30;;;;;;;7.68;5.75;;;;;;;;;;4976728;28;20608;-61
2023/06/05 11:50:08;;;;;;;7.38;5.85;;;;;;;;;;4980692;28;20489;-60
2023/06/05 11:52:34;;;;;;;9.48;5.90;;;;;;;;;;4975217;28;20105;-60
2023/06/05 11:55:42;;;;;;;7.78;5.57;;;;;;;;;;4989842;28;21102;-59
2023/06/05 11:58:08;;;;;;;8.80;5.57;;;;;;;;;;4985680;28;20049;-61
2023/06/05 12:00:34;;;;;;;9.55;6.13;;;;;;;;;;4984336;28;20112;-61
2023/06/05 12:02:59;;;;;;;7.18;5.45;;;;;;;;;;4991868;28;20046;-60
2023/06/05 12:05:25;;;;;;;7.93;5.10;;;;;;;;;;4990132;28;20050;-61
2023/06/05 12:07:50;;;;;;;9.05;5.07;;;;;;;;;;5001522;28;20037;-61
2023/06/05 12:10:16;;;;;;;7.15;5.57;;;;;;;;;;4999033;28;20166;-60
2023/06/05 12:12:50;;;;;;;7.28;5.20;;;;;;;;;;4993070;28;20038;-60
2023/06/05 12:15:16;;;;;;;9.25;5.53;;;;;;;;;;4995411;28;20090;-61
2023/06/05 12:17:48;;;;;;;7.38;4.68;;;;;;;;;;4986135;28;20034;-61
2023/06/05 12:20:14;;;;;;;8.75;5.60;;;;;;;;;;5000598;28;20120;-60
2023/06/05 12:22:39;;;;;;;6.65;5.53;;;;;;;;;;4998355;28;20049;-60
2023/06/05 12:25:15;;;;;;;7.07;5.00;;;;;;;;;;4988624;28;20030;-61
2023/06/05 12:27:41;;;;;;;6.22;5.13;;;;;;;;;;4984315;28;20034;-60
2023/06/05 12:30:07;;;;;;;7.07;5.50;;;;;;;;;;4986466;28;20476;-61
2023/06/05 12:32:33;;;;;;;6.53;5.18;;;;;;;;;;4988288;28;20054;-61
2023/06/05 12:34:58;;;;;;;6.88;5.22;;;;;;;;;;4998318;28;20214;-61
2023/06/05 12:37:29;;;;;;;6.93;5.40;;;;;;;;;;4995680;28;20040;-61
2023/06/05 12:39:54;;;;;;;7.13;5.25;;;;;;;;;;4995789;28;20301;-61
2023/06/05 12:42:19;;;;;;;8.07;5.05;;;;;;;;;;5001957;28;20415;-61
2023/06/05 12:44:45;;;;;;;7.10;4.70;;;;;;;;;;5000540;28;20052;-61
2023/06/05 12:47:10;;;;;;;7.60;4.72;;;;;;;;;;4991252;28;20068;-61
2023/06/05 12:49:36;;;;;;;6.40;5.00;;;;;;;;;;5003034;28;20042;-60
2023/06/05 12:52:02;;;;;;;6.25;4.75;;;;;;;;;;4994841;28;20280;-61
2023/06/05 12:54:28;;;;;;;7.72;5.32;;;;;;;;;;5003286;28;20575;-61
2023/06/05 12:56:53;;;;;;;5.45;4.28;;;;;;;;;;5000155;28;20048;-61
2023/06/05 12:59:18;;;;;;;6.17;4.87;;;;;;;;;;4999409;28;20045;-61
2023/06/05 13:01:44;;;;;;;6.00;4.83;;;;;;;;;;4987536;28;20355;-61
2023/06/05 13:04:10;;;;;;;5.75;4.28;;;;;;;;;;5000509;28;20293;-61
2023/06/05 13:06:35;;;;;;;7.40;4.72;;;;;;;;;;5000785;28;20089;-62
2023/06/05 13:09:00;;;;;;;6.50;4.55;;;;;;;;;;5000173;28;20500;-61
2023/06/05 13:11:25;;;;;;;7.35;4.80;;;;;;;;;;5001406;28;20041;-61
2023/06/05 13:13:51;;;;;;;6.30;4.37;;;;;;;;;;4994759;28;20174;-62
2023/06/05 13:16:16;;;;;;;4.63;4.13;;;;;;;;;;4995471;28;20296;-61
2023/06/05 13:18:41;;;;;;;7.40;4.70;;;;;;;;;;4997627;28;20297;-61
2023/06/05 13:21:06;;;;;;;5.53;4.50;;;;;;;;;;4994440;28;20082;-62
2023/06/05 13:23:32;;;;;;;5.40;4.37;;;;;;;;;;4991124;28;20301;-62
2023/06/05 13:25:58;;;;;;;6.78;4.35;;;;;;;;;;4999253;28;20359;-62
2023/06/05 13:28:23;;;;;;;7.55;4.28;;;;;;;;;;4984957;28;20049;-60
2023/06/05 13:30:48;;;;;;;6.23;4.13;;;;;;;;;;4990371;28;20038;-60
2023/06/05 13:33:13;;;;;;;5.83;4.47;;;;;;;;;;5000700;28;20042;-61
2023/06/05 13:35:39;;;;;;;5.88;4.15;;;;;;;;;;4985269;28;20352;-61
2023/06/05 13:38:04;;;;;;;10.02;4.60;;;;;;;;;;5000271;28;20030;-62
2023/06/05 13:40:31;;;;;;;5.07;4.27;;;;;;;;;;4994012;28;20179;-62
2023/06/05 13:42:57;;;;;;;6.53;4.68;;;;;;;;;;4994567;28;20042;-61
2023/06/05 13:45:22;;;;;;;5.03;4.30;;;;;;;;;;5001248;28;20805;-61
2023/06/05 13:47:48;;;;;;;10.37;4.07;;;;;;;;;;4991273;28;20188;-61
2023/06/05 13:50:13;;;;;;;6.85;4.10;;;;;;;;;;4989504;28;20058;-61
2023/06/05 13:52:38;;;;;;;5.23;4.10;;;;;;;;;;4988360;28;20123;-60
2023/06/05 13:55:04;;;;;;;4.97;3.90;;;;;;;;;;4988403;28;20278;-60
2023/06/05 13:57:30;;;;;;;5.78;4.15;;;;;;;;;;4996291;28;20045;-60
2023/06/05 13:59:55;;;;;;;5.20;3.77;;;;;;;;;;5000529;28;20042;-61
2023/06/05 14:02:21;;;;;;;6.30;3.70;;;;;;;;;;5001422;28;20069;-61
2023/06/05 14:04:46;;;;;;;5.50;4.00;;;;;;;;;;4971439;28;20060;-61
2023/06/05 14:07:11;;;;;;;6.97;4.32;;;;;;;;;;4987109;28;20044;-62
2023/06/05 14:09:36;;;;;;;4.93;4.00;;;;;;;;;;5006223;28;20124;-61
2023/06/05 14:12:02;;;;;;;5.53;3.97;;;;;;;;;;4993378;28;20042;-60
2023/06/05 14:14:27;;;;;;;5.40;4.13;;;;;;;;;;4984790;28;20291;-59
2023/06/05 14:16:52;;;;;;;8.53;4.23;;;;;;;;;;4998897;28;20042;-61
2023/06/05 14:19:17;;;;;;;5.83;4.00;;;;;;;;;;4997730;28;20789;-60
2023/06/05 14:21:43;;;;;;;5.60;4.25;;;;;;;;;;5011218;28;20319;-59
2023/06/05 14:24:08;;;;;;;5.43;3.72;;;;;;;;;;4991686;28;20038;-60
2023/06/05 14:26:33;;;;;;;5.77;3.90;;;;;;;;;;5002068;28;20559;-60
2023/06/05 14:28:59;;;;;;;6.05;3.95;;;;;;;;;;5009946;28;20435;-61
2023/06/05 14:31:25;;;;;;;4.43;3.63;;;;;;;;;;5002800;28;20514;-59
2023/06/05 14:33:50;;;;;;;6.63;4.13;;;;;;;;;;5000068;28;20663;-60
2023/06/05 14:36:16;;;;;;;5.57;3.70;;;;;;;;;;5015315;28;20026;-61